sensor_id;sensor_type;location;lat;lon;timestamp;P1;durP1;ratioP1;P2;durP2;ratioP2
53646;SDS011;39550;52.230;5.194;2023-03-13T00:01:46;19.83;;;6.88;;
53646;SDS011;39550;52.230;5.194;2023-03-13T00:04:13;17.67;;;7.60;;
53646;SDS011;39550;52.230;5.194;2023-03-13T00:06:38;14.88;;;6.57;;
53646;SDS011;39550;52.230;5.194;2023-03-13T00:09:05;15.35;;;6.70;;
53646;SDS011;39550;52.230;5.194;2023-03-13T00:11:33;17.83;;;6.38;;
53646;SDS011;39550;52.230;5.194;2023-03-13T00:13:59;14.15;;;6.68;;
53646;SDS011;39550;52.230;5.194;2023-03-13T00:16:26;14.50;;;6.10;;
53646;SDS011;39550;52.230;5.194;2023-03-13T00:18:53;13.38;;;6.13;;
53646;SDS011;39550;52.230;5.194;2023-03-13T00:21:20;16.95;;;6.68;;
53646;SDS011;39550;52.230;5.194;2023-03-13T00:23:47;14.20;;;6.15;;
53646;SDS011;39550;52.230;5.194;2023-03-13T00:26:14;20.65;;;7.22;;
53646;SDS011;39550;52.230;5.194;2023-03-13T00:28:41;15.10;;;6.18;;
53646;SDS011;39550;52.230;5.194;2023-03-13T00:33:35;14.65;;;6.32;;
53646;SDS011;39550;52.230;5.194;2023-03-13T00:36:02;13.73;;;6.10;;
53646;SDS011;39550;52.230;5.194;2023-03-13T00:38:29;14.98;;;6.18;;
53646;SDS011;39550;52.230;5.194;2023-03-13T00:41:05;19.25;;;5.78;;
53646;SDS011;39550;52.230;5.194;2023-03-13T00:43:32;19.67;;;6.75;;
53646;SDS011;39550;52.230;5.194;2023-03-13T00:45:59;18.33;;;6.50;;
53646;SDS011;39550;52.230;5.194;2023-03-13T00:48:24;16.77;;;5.88;;
53646;SDS011;39550;52.230;5.194;2023-03-13T00:50:50;12.75;;;5.50;;
53646;SDS011;39550;52.230;5.194;2023-03-13T00:53:15;17.95;;;7.90;;
53646;SDS011;39550;52.230;5.194;2023-03-13T00:58:46;20.17;;;7.60;;
53646;SDS011;39550;52.230;5.194;2023-03-13T01:01:14;11.38;;;5.68;;
53646;SDS011;39550;52.230;5.194;2023-03-13T01:03:40;16.35;;;5.90;;
53646;SDS011;39550;52.230;5.194;2023-03-13T01:06:08;18.55;;;7.43;;
53646;SDS011;39550;52.230;5.194;2023-03-13T01:08:36;18.35;;;7.20;;
53646;SDS011;39550;52.230;5.194;2023-03-13T01:11:03;14.82;;;6.43;;
53646;SDS011;39550;52.230;5.194;2023-03-13T01:13:31;20.33;;;6.90;;
53646;SDS011;39550;52.230;5.194;2023-03-13T01:16:00;15.55;;;6.70;;
53646;SDS011;39550;52.230;5.194;2023-03-13T01:18:30;13.95;;;5.55;;
53646;SDS011;39550;52.230;5.194;2023-03-13T01:20:56;14.80;;;6.00;;
53646;SDS011;39550;52.230;5.194;2023-03-13T01:23:21;15.13;;;7.35;;
53646;SDS011;39550;52.230;5.194;2023-03-13T01:25:47;13.18;;;5.55;;
53646;SDS011;39550;52.230;5.194;2023-03-13T01:28:12;15.77;;;6.22;;
53646;SDS011;39550;52.230;5.194;2023-03-13T01:30:37;14.48;;;6.07;;
53646;SDS011;39550;52.230;5.194;2023-03-13T01:33:03;16.13;;;6.32;;
53646;SDS011;39550;52.230;5.194;2023-03-13T01:35:28;15.27;;;6.18;;
53646;SDS011;39550;52.230;5.194;2023-03-13T01:37:53;10.70;;;5.25;;
53646;SDS011;39550;52.230;5.194;2023-03-13T01:40:19;12.05;;;5.50;;
53646;SDS011;39550;52.230;5.194;2023-03-13T01:42:51;11.82;;;5.57;;
53646;SDS011;39550;52.230;5.194;2023-03-13T01:48:21;13.73;;;6.32;;
53646;SDS011;39550;52.230;5.194;2023-03-13T01:50:51;14.63;;;6.20;;
53646;SDS011;39550;52.230;5.194;2023-03-13T01:53:18;11.43;;;5.65;;
53646;SDS011;39550;52.230;5.194;2023-03-13T01:55:44;13.48;;;6.85;;
53646;SDS011;39550;52.230;5.194;2023-03-13T01:58:10;12.02;;;6.22;;
53646;SDS011;39550;52.230;5.194;2023-03-13T02:00:35;12.40;;;5.93;;
53646;SDS011;39550;52.230;5.194;2023-03-13T02:03:07;10.40;;;5.55;;
53646;SDS011;39550;52.230;5.194;2023-03-13T02:05:36;11.65;;;4.95;;
53646;SDS011;39550;52.230;5.194;2023-03-13T02:08:07;10.88;;;5.80;;
53646;SDS011;39550;52.230;5.194;2023-03-13T02:10:38;13.30;;;6.50;;
53646;SDS011;39550;52.230;5.194;2023-03-13T02:13:09;10.18;;;5.53;;
53646;SDS011;39550;52.230;5.194;2023-03-13T02:15:39;11.77;;;6.05;;
53646;SDS011;39550;52.230;5.194;2023-03-13T02:18:05;11.20;;;5.47;;
53646;SDS011;39550;52.230;5.194;2023-03-13T02:20:30;12.05;;;5.95;;
53646;SDS011;39550;52.230;5.194;2023-03-13T02:23:00;11.27;;;6.20;;
53646;SDS011;39550;52.230;5.194;2023-03-13T02:28:13;8.43;;;5.60;;
53646;SDS011;39550;52.230;5.194;2023-03-13T02:30:43;10.55;;;5.93;;
53646;SDS011;39550;52.230;5.194;2023-03-13T02:33:12;11.48;;;6.10;;
53646;SDS011;39550;52.230;5.194;2023-03-13T02:35:38;12.32;;;6.53;;
53646;SDS011;39550;52.230;5.194;2023-03-13T02:38:05;10.65;;;6.07;;
53646;SDS011;39550;52.230;5.194;2023-03-13T02:40:35;12.23;;;6.00;;
53646;SDS011;39550;52.230;5.194;2023-03-13T02:43:08;14.48;;;6.82;;
53646;SDS011;39550;52.230;5.194;2023-03-13T02:45:36;12.52;;;6.70;;
53646;SDS011;39550;52.230;5.194;2023-03-13T02:48:01;13.18;;;7.13;;
53646;SDS011;39550;52.230;5.194;2023-03-13T02:50:27;11.23;;;6.60;;
53646;SDS011;39550;52.230;5.194;2023-03-13T02:52:54;11.43;;;7.10;;
53646;SDS011;39550;52.230;5.194;2023-03-13T02:55:34;10.90;;;6.95;;
53646;SDS011;39550;52.230;5.194;2023-03-13T02:58:03;11.70;;;7.80;;
53646;SDS011;39550;52.230;5.194;2023-03-13T03:00:28;10.38;;;7.10;;
53646;SDS011;39550;52.230;5.194;2023-03-13T03:02:54;12.43;;;8.00;;
53646;SDS011;39550;52.230;5.194;2023-03-13T03:05:19;11.95;;;6.68;;
53646;SDS011;39550;52.230;5.194;2023-03-13T03:07:46;10.23;;;7.25;;
53646;SDS011;39550;52.230;5.194;2023-03-13T03:10:12;12.25;;;7.25;;
53646;SDS011;39550;52.230;5.194;2023-03-13T03:12:37;9.90;;;7.22;;
53646;SDS011;39550;52.230;5.194;2023-03-13T03:15:02;16.33;;;8.57;;
53646;SDS011;39550;52.230;5.194;2023-03-13T03:17:29;12.38;;;7.63;;
53646;SDS011;39550;52.230;5.194;2023-03-13T03:19:54;13.35;;;8.43;;
53646;SDS011;39550;52.230;5.194;2023-03-13T03:22:20;19.52;;;8.52;;
53646;SDS011;39550;52.230;5.194;2023-03-13T03:24:45;13.40;;;7.63;;
53646;SDS011;39550;52.230;5.194;2023-03-13T03:27:11;14.77;;;7.82;;
53646;SDS011;39550;52.230;5.194;2023-03-13T03:29:36;12.02;;;7.25;;
53646;SDS011;39550;52.230;5.194;2023-03-13T03:32:01;12.90;;;7.85;;
53646;SDS011;39550;52.230;5.194;2023-03-13T03:34:26;10.75;;;7.40;;
53646;SDS011;39550;52.230;5.194;2023-03-13T03:36:52;13.98;;;7.97;;
53646;SDS011;39550;52.230;5.194;2023-03-13T03:39:17;11.20;;;7.90;;
53646;SDS011;39550;52.230;5.194;2023-03-13T03:41:42;12.48;;;7.70;;
53646;SDS011;39550;52.230;5.194;2023-03-13T03:44:08;10.45;;;7.47;;
53646;SDS011;39550;52.230;5.194;2023-03-13T03:46:33;14.20;;;8.25;;
53646;SDS011;39550;52.230;5.194;2023-03-13T03:48:58;11.77;;;7.72;;
53646;SDS011;39550;52.230;5.194;2023-03-13T03:51:24;10.90;;;7.35;;
53646;SDS011;39550;52.230;5.194;2023-03-13T03:53:49;12.15;;;8.32;;
53646;SDS011;39550;52.230;5.194;2023-03-13T03:56:15;12.18;;;7.47;;
53646;SDS011;39550;52.230;5.194;2023-03-13T03:58:40;13.05;;;8.23;;
53646;SDS011;39550;52.230;5.194;2023-03-13T04:01:05;14.70;;;7.82;;
53646;SDS011;39550;52.230;5.194;2023-03-13T04:03:31;12.38;;;8.00;;
53646;SDS011;39550;52.230;5.194;2023-03-13T04:05:56;13.07;;;7.72;;
53646;SDS011;39550;52.230;5.194;2023-03-13T04:08:22;13.13;;;7.10;;
53646;SDS011;39550;52.230;5.194;2023-03-13T04:10:48;13.32;;;8.18;;
53646;SDS011;39550;52.230;5.194;2023-03-13T04:13:13;10.75;;;6.95;;
53646;SDS011;39550;52.230;5.194;2023-03-13T04:15:39;10.98;;;7.00;;
53646;SDS011;39550;52.230;5.194;2023-03-13T04:18:05;12.40;;;6.97;;
53646;SDS011;39550;52.230;5.194;2023-03-13T04:20:31;10.95;;;7.75;;
53646;SDS011;39550;52.230;5.194;2023-03-13T04:22:56;9.95;;;7.45;;
53646;SDS011;39550;52.230;5.194;2023-03-13T04:25:22;10.40;;;6.40;;
53646;SDS011;39550;52.230;5.194;2023-03-13T04:27:47;11.10;;;7.03;;
53646;SDS011;39550;52.230;5.194;2023-03-13T04:30:13;10.65;;;7.25;;
53646;SDS011;39550;52.230;5.194;2023-03-13T04:42:51;11.45;;;7.20;;
53646;SDS011;39550;52.230;5.194;2023-03-13T04:45:18;11.27;;;6.85;;
53646;SDS011;39550;52.230;5.194;2023-03-13T04:47:44;8.80;;;6.47;;
53646;SDS011;39550;52.230;5.194;2023-03-13T04:50:10;11.85;;;7.30;;
53646;SDS011;39550;52.230;5.194;2023-03-13T04:52:36;10.13;;;6.88;;
53646;SDS011;39550;52.230;5.194;2023-03-13T04:55:01;11.60;;;6.60;;
53646;SDS011;39550;52.230;5.194;2023-03-13T04:57:26;12.10;;;6.60;;
53646;SDS011;39550;52.230;5.194;2023-03-13T04:59:51;10.02;;;6.70;;
53646;SDS011;39550;52.230;5.194;2023-03-13T05:02:17;10.60;;;6.85;;
53646;SDS011;39550;52.230;5.194;2023-03-13T05:04:42;10.30;;;6.47;;
53646;SDS011;39550;52.230;5.194;2023-03-13T05:07:07;14.13;;;6.45;;
53646;SDS011;39550;52.230;5.194;2023-03-13T05:09:33;8.75;;;6.68;;
53646;SDS011;39550;52.230;5.194;2023-03-13T05:11:58;12.73;;;6.68;;
53646;SDS011;39550;52.230;5.194;2023-03-13T05:14:23;9.32;;;6.72;;
53646;SDS011;39550;52.230;5.194;2023-03-13T05:16:49;14.00;;;6.80;;
53646;SDS011;39550;52.230;5.194;2023-03-13T05:19:14;9.77;;;6.50;;
53646;SDS011;39550;52.230;5.194;2023-03-13T05:21:39;13.20;;;6.28;;
53646;SDS011;39550;52.230;5.194;2023-03-13T05:24:05;9.30;;;6.82;;
53646;SDS011;39550;52.230;5.194;2023-03-13T05:26:30;12.15;;;6.85;;
53646;SDS011;39550;52.230;5.194;2023-03-13T05:28:55;10.43;;;6.72;;
53646;SDS011;39550;52.230;5.194;2023-03-13T05:31:21;10.55;;;6.80;;
53646;SDS011;39550;52.230;5.194;2023-03-13T05:33:46;11.63;;;7.40;;
53646;SDS011;39550;52.230;5.194;2023-03-13T05:36:11;9.93;;;6.28;;
53646;SDS011;39550;52.230;5.194;2023-03-13T05:38:37;9.30;;;5.57;;
53646;SDS011;39550;52.230;5.194;2023-03-13T05:41:02;10.98;;;6.80;;
53646;SDS011;39550;52.230;5.194;2023-03-13T05:43:27;9.38;;;6.13;;
53646;SDS011;39550;52.230;5.194;2023-03-13T05:45:53;12.18;;;6.30;;
53646;SDS011;39550;52.230;5.194;2023-03-13T05:48:18;11.32;;;5.85;;
53646;SDS011;39550;52.230;5.194;2023-03-13T05:50:43;10.73;;;6.22;;
53646;SDS011;39550;52.230;5.194;2023-03-13T05:53:09;10.38;;;6.75;;
53646;SDS011;39550;52.230;5.194;2023-03-13T05:55:34;9.88;;;6.18;;
53646;SDS011;39550;52.230;5.194;2023-03-13T05:57:59;12.10;;;6.60;;
53646;SDS011;39550;52.230;5.194;2023-03-13T06:00:25;10.85;;;6.28;;
53646;SDS011;39550;52.230;5.194;2023-03-13T06:02:50;10.75;;;6.55;;
53646;SDS011;39550;52.230;5.194;2023-03-13T06:05:15;11.23;;;6.57;;
53646;SDS011;39550;52.230;5.194;2023-03-13T06:07:41;9.00;;;6.18;;
53646;SDS011;39550;52.230;5.194;2023-03-13T06:10:06;11.63;;;6.80;;
53646;SDS011;39550;52.230;5.194;2023-03-13T06:12:32;12.57;;;5.95;;
53646;SDS011;39550;52.230;5.194;2023-03-13T06:14:57;10.88;;;6.63;;
53646;SDS011;39550;52.230;5.194;2023-03-13T06:17:23;9.43;;;6.10;;
53646;SDS011;39550;52.230;5.194;2023-03-13T06:19:49;11.38;;;5.97;;
53646;SDS011;39550;52.230;5.194;2023-03-13T06:22:15;16.48;;;6.90;;
53646;SDS011;39550;52.230;5.194;2023-03-13T06:24:41;12.52;;;6.22;;
53646;SDS011;39550;52.230;5.194;2023-03-13T06:27:08;11.13;;;6.93;;
53646;SDS011;39550;52.230;5.194;2023-03-13T06:29:34;11.95;;;5.88;;
53646;SDS011;39550;52.230;5.194;2023-03-13T06:31:59;13.05;;;6.32;;
53646;SDS011;39550;52.230;5.194;2023-03-13T06:34:24;11.40;;;6.47;;
53646;SDS011;39550;52.230;5.194;2023-03-13T06:36:50;9.35;;;5.68;;
53646;SDS011;39550;52.230;5.194;2023-03-13T06:39:15;11.35;;;5.88;;
53646;SDS011;39550;52.230;5.194;2023-03-13T06:41:40;10.85;;;5.95;;
53646;SDS011;39550;52.230;5.194;2023-03-13T06:44:06;10.98;;;6.68;;
53646;SDS011;39550;52.230;5.194;2023-03-13T06:46:31;12.88;;;5.63;;
53646;SDS011;39550;52.230;5.194;2023-03-13T06:48:57;10.55;;;6.38;;
53646;SDS011;39550;52.230;5.194;2023-03-13T06:51:23;10.40;;;6.45;;
53646;SDS011;39550;52.230;5.194;2023-03-13T06:53:50;10.23;;;5.28;;
53646;SDS011;39550;52.230;5.194;2023-03-13T06:56:16;12.77;;;6.32;;
53646;SDS011;39550;52.230;5.194;2023-03-13T06:58:41;9.18;;;5.40;;
53646;SDS011;39550;52.230;5.194;2023-03-13T07:01:10;12.13;;;5.82;;
53646;SDS011;39550;52.230;5.194;2023-03-13T07:03:37;12.38;;;5.95;;
53646;SDS011;39550;52.230;5.194;2023-03-13T07:06:03;12.80;;;6.40;;
53646;SDS011;39550;52.230;5.194;2023-03-13T07:08:30;11.10;;;6.13;;
53646;SDS011;39550;52.230;5.194;2023-03-13T07:10:57;15.27;;;6.20;;
53646;SDS011;39550;52.230;5.194;2023-03-13T07:13:23;12.02;;;6.03;;
53646;SDS011;39550;52.230;5.194;2023-03-13T07:15:49;13.65;;;6.03;;
53646;SDS011;39550;52.230;5.194;2023-03-13T07:18:15;10.98;;;6.10;;
53646;SDS011;39550;52.230;5.194;2023-03-13T07:20:40;12.93;;;5.55;;
53646;SDS011;39550;52.230;5.194;2023-03-13T07:23:06;14.13;;;5.78;;
53646;SDS011;39550;52.230;5.194;2023-03-13T07:25:31;12.18;;;5.97;;
53646;SDS011;39550;52.230;5.194;2023-03-13T07:27:56;13.30;;;7.28;;
53646;SDS011;39550;52.230;5.194;2023-03-13T07:30:22;9.65;;;5.93;;
53646;SDS011;39550;52.230;5.194;2023-03-13T07:32:47;10.93;;;6.03;;
53646;SDS011;39550;52.230;5.194;2023-03-13T07:35:13;10.23;;;6.05;;
53646;SDS011;39550;52.230;5.194;2023-03-13T07:37:38;10.10;;;5.47;;
53646;SDS011;39550;52.230;5.194;2023-03-13T07:40:04;12.43;;;6.20;;
53646;SDS011;39550;52.230;5.194;2023-03-13T07:42:30;12.50;;;6.15;;
53646;SDS011;39550;52.230;5.194;2023-03-13T07:44:55;11.02;;;5.78;;
53646;SDS011;39550;52.230;5.194;2023-03-13T07:47:20;8.68;;;5.50;;
53646;SDS011;39550;52.230;5.194;2023-03-13T07:49:46;11.05;;;5.93;;
53646;SDS011;39550;52.230;5.194;2023-03-13T07:52:11;13.88;;;6.05;;
53646;SDS011;39550;52.230;5.194;2023-03-13T07:54:36;12.70;;;6.15;;
53646;SDS011;39550;52.230;5.194;2023-03-13T07:57:02;11.20;;;6.18;;
53646;SDS011;39550;52.230;5.194;2023-03-13T07:59:28;10.23;;;5.63;;
53646;SDS011;39550;52.230;5.194;2023-03-13T08:01:53;11.90;;;5.72;;
53646;SDS011;39550;52.230;5.194;2023-03-13T08:04:18;10.90;;;5.65;;
53646;SDS011;39550;52.230;5.194;2023-03-13T08:06:44;11.63;;;6.03;;
53646;SDS011;39550;52.230;5.194;2023-03-13T08:09:09;9.98;;;5.22;;
53646;SDS011;39550;52.230;5.194;2023-03-13T08:11:35;10.32;;;5.72;;
53646;SDS011;39550;52.230;5.194;2023-03-13T08:14:04;8.60;;;5.47;;
53646;SDS011;39550;52.230;5.194;2023-03-13T08:16:30;12.82;;;6.03;;
53646;SDS011;39550;52.230;5.194;2023-03-13T08:18:58;11.00;;;5.88;;
53646;SDS011;39550;52.230;5.194;2023-03-13T08:21:29;8.80;;;5.47;;
53646;SDS011;39550;52.230;5.194;2023-03-13T08:23:57;10.82;;;5.75;;
53646;SDS011;39550;52.230;5.194;2023-03-13T08:26:24;10.75;;;5.28;;
53646;SDS011;39550;52.230;5.194;2023-03-13T08:28:52;13.52;;;6.25;;
53646;SDS011;39550;52.230;5.194;2023-03-13T08:31:20;12.68;;;5.82;;
53646;SDS011;39550;52.230;5.194;2023-03-13T08:33:50;9.00;;;5.43;;
53646;SDS011;39550;52.230;5.194;2023-03-13T08:36:20;9.35;;;5.70;;
53646;SDS011;39550;52.230;5.194;2023-03-13T08:38:47;9.00;;;5.55;;
53646;SDS011;39550;52.230;5.194;2023-03-13T08:41:17;13.30;;;6.47;;
53646;SDS011;39550;52.230;5.194;2023-03-13T08:43:47;8.70;;;5.40;;
53646;SDS011;39550;52.230;5.194;2023-03-13T08:46:13;9.68;;;5.40;;
53646;SDS011;39550;52.230;5.194;2023-03-13T08:48:39;10.18;;;4.85;;
53646;SDS011;39550;52.230;5.194;2023-03-13T08:51:06;9.07;;;5.18;;
53646;SDS011;39550;52.230;5.194;2023-03-13T08:53:34;7.80;;;5.00;;
53646;SDS011;39550;52.230;5.194;2023-03-13T08:56:00;8.68;;;5.07;;
53646;SDS011;39550;52.230;5.194;2023-03-13T08:58:26;8.52;;;5.05;;
53646;SDS011;39550;52.230;5.194;2023-03-13T09:00:52;9.52;;;4.97;;
53646;SDS011;39550;52.230;5.194;2023-03-13T09:03:18;11.10;;;5.68;;
53646;SDS011;39550;52.230;5.194;2023-03-13T09:05:43;14.20;;;5.82;;
53646;SDS011;39550;52.230;5.194;2023-03-13T09:08:10;9.35;;;5.22;;
53646;SDS011;39550;52.230;5.194;2023-03-13T09:10:35;11.18;;;4.97;;
53646;SDS011;39550;52.230;5.194;2023-03-13T09:13:01;8.52;;;5.10;;
53646;SDS011;39550;52.230;5.194;2023-03-13T09:15:26;7.30;;;4.85;;
53646;SDS011;39550;52.230;5.194;2023-03-13T09:17:52;8.30;;;5.32;;
53646;SDS011;39550;52.230;5.194;2023-03-13T09:20:18;10.02;;;5.10;;
53646;SDS011;39550;52.230;5.194;2023-03-13T09:22:44;9.77;;;5.03;;
53646;SDS011;39550;52.230;5.194;2023-03-13T09:25:10;14.73;;;5.68;;
53646;SDS011;39550;52.230;5.194;2023-03-13T09:27:35;9.63;;;4.40;;
53646;SDS011;39550;52.230;5.194;2023-03-13T09:30:01;10.50;;;4.88;;
53646;SDS011;39550;52.230;5.194;2023-03-13T09:32:26;9.55;;;4.78;;
53646;SDS011;39550;52.230;5.194;2023-03-13T09:34:51;10.20;;;4.93;;
53646;SDS011;39550;52.230;5.194;2023-03-13T09:37:17;7.07;;;3.97;;
53646;SDS011;39550;52.230;5.194;2023-03-13T09:39:42;9.38;;;4.53;;
53646;SDS011;39550;52.230;5.194;2023-03-13T09:42:14;8.23;;;4.80;;
53646;SDS011;39550;52.230;5.194;2023-03-13T09:44:53;10.20;;;4.85;;
53646;SDS011;39550;52.230;5.194;2023-03-13T09:47:44;12.52;;;5.63;;
53646;SDS011;39550;52.230;5.194;2023-03-13T09:50:18;8.38;;;4.45;;
53646;SDS011;39550;52.230;5.194;2023-03-13T09:52:47;7.03;;;4.15;;
53646;SDS011;39550;52.230;5.194;2023-03-13T10:00:40;10.15;;;4.72;;
53646;SDS011;39550;52.230;5.194;2023-03-13T10:05:35;12.20;;;4.80;;
53646;SDS011;39550;52.230;5.194;2023-03-13T10:08:12;7.68;;;4.07;;
53646;SDS011;39550;52.230;5.194;2023-03-13T10:10:46;7.68;;;4.00;;
53646;SDS011;39550;52.230;5.194;2023-03-13T10:13:35;8.00;;;4.03;;
53646;SDS011;39550;52.230;5.194;2023-03-13T10:16:06;11.00;;;5.05;;
53646;SDS011;39550;52.230;5.194;2023-03-13T10:18:35;8.98;;;4.50;;
53646;SDS011;39550;52.230;5.194;2023-03-13T10:21:06;10.73;;;4.78;;
53646;SDS011;39550;52.230;5.194;2023-03-13T10:23:49;8.88;;;4.13;;
53646;SDS011;39550;52.230;5.194;2023-03-13T10:26:26;9.77;;;4.05;;
53646;SDS011;39550;52.230;5.194;2023-03-13T10:28:54;9.53;;;4.07;;
53646;SDS011;39550;52.230;5.194;2023-03-13T10:36:17;7.67;;;4.00;;
53646;SDS011;39550;52.230;5.194;2023-03-13T10:41:22;7.07;;;3.65;;
53646;SDS011;39550;52.230;5.194;2023-03-13T10:44:00;5.95;;;3.28;;
53646;SDS011;39550;52.230;5.194;2023-03-13T10:46:29;10.38;;;3.92;;
53646;SDS011;39550;52.230;5.194;2023-03-13T10:49:03;8.57;;;4.03;;
53646;SDS011;39550;52.230;5.194;2023-03-13T10:51:39;10.77;;;4.55;;
53646;SDS011;39550;52.230;5.194;2023-03-13T10:54:15;7.88;;;3.97;;
53646;SDS011;39550;52.230;5.194;2023-03-13T10:56:45;7.88;;;4.32;;
53646;SDS011;39550;52.230;5.194;2023-03-13T10:59:24;7.35;;;4.13;;
53646;SDS011;39550;52.230;5.194;2023-03-13T11:01:51;6.60;;;3.42;;
53646;SDS011;39550;52.230;5.194;2023-03-13T11:04:28;7.70;;;3.83;;
53646;SDS011;39550;52.230;5.194;2023-03-13T11:10:18;8.07;;;3.47;;
53646;SDS011;39550;52.230;5.194;2023-03-13T11:12:52;7.00;;;3.78;;
53646;SDS011;39550;52.230;5.194;2023-03-13T11:15:21;7.68;;;4.20;;
53646;SDS011;39550;52.230;5.194;2023-03-13T11:18:14;8.38;;;4.07;;
53646;SDS011;39550;52.230;5.194;2023-03-13T11:20:48;6.93;;;3.70;;
53646;SDS011;39550;52.230;5.194;2023-03-13T11:23:22;6.82;;;3.72;;
53646;SDS011;39550;52.230;5.194;2023-03-13T11:26:15;9.50;;;3.80;;
53646;SDS011;39550;52.230;5.194;2023-03-13T11:28:49;9.68;;;3.67;;
53646;SDS011;39550;52.230;5.194;2023-03-13T11:31:28;8.52;;;3.60;;
53646;SDS011;39550;52.230;5.194;2023-03-13T11:34:04;8.15;;;4.10;;
53646;SDS011;39550;52.230;5.194;2023-03-13T11:39:48;6.00;;;3.70;;
53646;SDS011;39550;52.230;5.194;2023-03-13T11:45:30;9.48;;;3.95;;
53646;SDS011;39550;52.230;5.194;2023-03-13T11:56:40;6.72;;;3.90;;
53646;SDS011;39550;52.230;5.194;2023-03-13T11:59:42;6.18;;;3.45;;
53646;SDS011;39550;52.230;5.194;2023-03-13T12:04:41;7.40;;;3.33;;
53646;SDS011;39550;52.230;5.194;2023-03-13T12:07:19;8.40;;;3.78;;
53646;SDS011;39550;52.230;5.194;2023-03-13T12:09:57;6.97;;;3.33;;
53646;SDS011;39550;52.230;5.194;2023-03-13T12:23:45;10.40;;;3.95;;
53646;SDS011;39550;52.230;5.194;2023-03-13T12:26:13;9.43;;;3.67;;
53646;SDS011;39550;52.230;5.194;2023-03-13T12:31:25;9.23;;;3.45;;
53646;SDS011;39550;52.230;5.194;2023-03-13T12:34:02;9.15;;;4.10;;
53646;SDS011;39550;52.230;5.194;2023-03-13T12:36:40;9.60;;;3.55;;
53646;SDS011;39550;52.230;5.194;2023-03-13T12:39:29;11.43;;;4.28;;
53646;SDS011;39550;52.230;5.194;2023-03-13T12:44:49;7.43;;;3.58;;
53646;SDS011;39550;52.230;5.194;2023-03-13T12:47:17;10.27;;;3.88;;
53646;SDS011;39550;52.230;5.194;2023-03-13T12:50:02;8.02;;;3.80;;
53646;SDS011;39550;52.230;5.194;2023-03-13T12:52:38;13.15;;;3.88;;
53646;SDS011;39550;52.230;5.194;2023-03-13T13:00:34;8.55;;;3.65;;
53646;SDS011;39550;52.230;5.194;2023-03-13T13:08:29;11.35;;;3.88;;
53646;SDS011;39550;52.230;5.194;2023-03-13T13:16:59;11.48;;;3.95;;
53646;SDS011;39550;52.230;5.194;2023-03-13T13:32:42;14.85;;;4.78;;
53646;SDS011;39550;52.230;5.194;2023-03-13T13:35:32;9.32;;;4.03;;
53646;SDS011;39550;52.230;5.194;2023-03-13T13:43:47;12.90;;;4.70;;
53646;SDS011;39550;52.230;5.194;2023-03-13T13:46:29;14.13;;;4.97;;
53646;SDS011;39550;52.230;5.194;2023-03-13T13:51:35;10.40;;;4.40;;
53646;SDS011;39550;52.230;5.194;2023-03-13T13:58:56;15.82;;;4.78;;
53646;SDS011;39550;52.230;5.194;2023-03-13T14:01:24;13.35;;;4.75;;
53646;SDS011;39550;52.230;5.194;2023-03-13T14:03:50;10.98;;;4.50;;
53646;SDS011;39550;52.230;5.194;2023-03-13T14:06:19;10.52;;;4.32;;
53646;SDS011;39550;52.230;5.194;2023-03-13T14:08:47;17.85;;;5.95;;
53646;SDS011;39550;52.230;5.194;2023-03-13T14:16:43;11.60;;;4.28;;
53646;SDS011;39550;52.230;5.194;2023-03-13T14:21:59;14.13;;;4.28;;
53646;SDS011;39550;52.230;5.194;2023-03-13T14:24:24;16.50;;;5.40;;
53646;SDS011;39550;52.230;5.194;2023-03-13T14:26:50;12.55;;;4.57;;
53646;SDS011;39550;52.230;5.194;2023-03-13T14:29:16;11.32;;;4.57;;
53646;SDS011;39550;52.230;5.194;2023-03-13T14:31:52;19.88;;;5.57;;
53646;SDS011;39550;52.230;5.194;2023-03-13T14:34:19;13.50;;;5.07;;
53646;SDS011;39550;52.230;5.194;2023-03-13T14:36:45;14.40;;;4.75;;
53646;SDS011;39550;52.230;5.194;2023-03-13T14:39:15;12.27;;;4.75;;
53646;SDS011;39550;52.230;5.194;2023-03-13T14:44:29;14.18;;;4.63;;
53646;SDS011;39550;52.230;5.194;2023-03-13T14:49:27;13.02;;;5.00;;
53646;SDS011;39550;52.230;5.194;2023-03-13T14:52:03;10.40;;;4.45;;
53646;SDS011;39550;52.230;5.194;2023-03-13T14:54:32;16.30;;;5.50;;
53646;SDS011;39550;52.230;5.194;2023-03-13T14:59:38;14.32;;;5.00;;
53646;SDS011;39550;52.230;5.194;2023-03-13T15:04:58;19.08;;;5.47;;
53646;SDS011;39550;52.230;5.194;2023-03-13T15:07:26;15.30;;;5.00;;
53646;SDS011;39550;52.230;5.194;2023-03-13T15:10:01;14.35;;;5.28;;
53646;SDS011;39550;52.230;5.194;2023-03-13T15:12:42;18.27;;;5.53;;
53646;SDS011;39550;52.230;5.194;2023-03-13T15:15:09;19.98;;;5.95;;
53646;SDS011;39550;52.230;5.194;2023-03-13T15:17:35;14.13;;;5.75;;
53646;SDS011;39550;52.230;5.194;2023-03-13T15:20:00;18.27;;;5.57;;
53646;SDS011;39550;52.230;5.194;2023-03-13T15:24:59;20.08;;;6.65;;
53646;SDS011;39550;52.230;5.194;2023-03-13T15:27:25;16.63;;;5.55;;
53646;SDS011;39550;52.230;5.194;2023-03-13T15:29:50;15.60;;;5.85;;
53646;SDS011;39550;52.230;5.194;2023-03-13T15:32:23;16.90;;;5.85;;
53646;SDS011;39550;52.230;5.194;2023-03-13T15:34:50;15.40;;;5.95;;
53646;SDS011;39550;52.230;5.194;2023-03-13T15:37:16;18.92;;;6.55;;
53646;SDS011;39550;52.230;5.194;2023-03-13T15:39:41;21.45;;;5.90;;
53646;SDS011;39550;52.230;5.194;2023-03-13T15:42:07;17.65;;;5.93;;
53646;SDS011;39550;52.230;5.194;2023-03-13T15:44:32;18.73;;;5.53;;
53646;SDS011;39550;52.230;5.194;2023-03-13T15:46:58;16.67;;;6.05;;
53646;SDS011;39550;52.230;5.194;2023-03-13T15:49:23;15.60;;;5.32;;
53646;SDS011;39550;52.230;5.194;2023-03-13T15:51:49;16.27;;;5.20;;
53646;SDS011;39550;52.230;5.194;2023-03-13T15:54:14;15.32;;;5.47;;
53646;SDS011;39550;52.230;5.194;2023-03-13T15:56:40;20.05;;;6.25;;
53646;SDS011;39550;52.230;5.194;2023-03-13T15:59:11;16.30;;;5.45;;
53646;SDS011;39550;52.230;5.194;2023-03-13T16:01:38;17.42;;;5.32;;
53646;SDS011;39550;52.230;5.194;2023-03-13T16:04:04;17.83;;;5.68;;
53646;SDS011;39550;52.230;5.194;2023-03-13T16:06:30;18.42;;;6.15;;
53646;SDS011;39550;52.230;5.194;2023-03-13T16:08:59;18.42;;;5.95;;
53646;SDS011;39550;52.230;5.194;2023-03-13T16:11:25;17.70;;;6.20;;
53646;SDS011;39550;52.230;5.194;2023-03-13T16:13:52;22.50;;;6.68;;
53646;SDS011;39550;52.230;5.194;2023-03-13T16:16:19;19.42;;;6.07;;
53646;SDS011;39550;52.230;5.194;2023-03-13T16:18:49;21.58;;;6.13;;
53646;SDS011;39550;52.230;5.194;2023-03-13T16:21:20;20.67;;;6.45;;
53646;SDS011;39550;52.230;5.194;2023-03-13T16:23:47;17.50;;;6.10;;
53646;SDS011;39550;52.230;5.194;2023-03-13T16:26:14;21.15;;;7.05;;
53646;SDS011;39550;52.230;5.194;2023-03-13T16:28:41;20.75;;;6.55;;
53646;SDS011;39550;52.230;5.194;2023-03-13T16:31:17;22.65;;;6.45;;
53646;SDS011;39550;52.230;5.194;2023-03-13T16:33:47;28.65;;;8.27;;
53646;SDS011;39550;52.230;5.194;2023-03-13T16:36:18;25.73;;;6.50;;
53646;SDS011;39550;52.230;5.194;2023-03-13T16:38:45;27.27;;;7.40;;
53646;SDS011;39550;52.230;5.194;2023-03-13T16:41:12;25.00;;;6.85;;
53646;SDS011;39550;52.230;5.194;2023-03-13T16:43:39;17.65;;;6.50;;
53646;SDS011;39550;52.230;5.194;2023-03-13T16:46:09;21.63;;;6.85;;
53646;SDS011;39550;52.230;5.194;2023-03-13T16:48:36;26.58;;;8.48;;
53646;SDS011;39550;52.230;5.194;2023-03-13T16:51:02;21.27;;;8.18;;
53646;SDS011;39550;52.230;5.194;2023-03-13T16:53:27;21.92;;;7.68;;
53646;SDS011;39550;52.230;5.194;2023-03-13T16:55:52;21.90;;;7.25;;
53646;SDS011;39550;52.230;5.194;2023-03-13T16:58:19;20.45;;;6.55;;
53646;SDS011;39550;52.230;5.194;2023-03-13T17:00:45;22.38;;;7.15;;
53646;SDS011;39550;52.230;5.194;2023-03-13T17:03:10;28.73;;;7.13;;